createdAt,value
2022-11-18T00:01:07.933Z,96352.59
2022-11-18T00:03:10.932Z,96353.28
2022-11-18T00:05:14.098Z,96352.59
2022-11-18T00:07:17.232Z,96351.78
2022-11-18T00:09:20.552Z,96352.72
2022-11-18T00:11:42.420Z,96346.72
2022-11-18T00:14:02.994Z,96344.91
2022-11-18T00:16:09.160Z,96340.38
2022-11-18T00:18:12.111Z,96331.72
2022-11-18T00:20:15.764Z,96334.31
2022-11-18T00:22:18.850Z,96339.53
2022-11-18T00:24:22.533Z,96335.47
2022-11-18T00:26:25.595Z,96343.44
2022-11-18T00:28:28.610Z,96334.91
2022-11-18T00:30:31.595Z,96333.00
2022-11-18T00:32:35.982Z,96333.97
2022-11-18T00:34:39.136Z,96336.56
2022-11-18T00:36:42.937Z,96333.97
2022-11-18T00:38:46.280Z,96342.75
2022-11-18T00:40:49.224Z,96341.13
2022-11-18T00:42:51.224Z,96336.88
2022-11-18T00:44:54.346Z,96335.91
2022-11-18T00:46:57.315Z,96334.13
2022-11-18T00:49:01.839Z,96332.47
2022-11-18T00:51:11.720Z,96341.28
2022-11-18T00:53:14.727Z,96344.53
2022-11-18T00:55:17.775Z,96346.03
2022-11-18T00:57:20.801Z,96345.06
2022-11-18T00:59:23.833Z,96341.50
2022-11-18T01:01:27.295Z,96343.13
2022-11-18T01:03:30.663Z,96351.78
2022-11-18T01:05:36.377Z,96350.81
2022-11-18T01:07:39.517Z,96345.75
2022-11-18T01:09:42.551Z,96343.28
2022-11-18T01:12:03.019Z,96346.72
2022-11-18T01:14:06.031Z,96348.34
2022-11-18T01:16:09.020Z,96348.34
2022-11-18T01:18:12.231Z,96352.72
2022-11-18T01:20:15.917Z,96355.19
2022-11-18T01:22:20.293Z,96355.34
2022-11-18T01:24:23.690Z,96356.19
2022-11-18T01:26:26.749Z,96353.56
2022-11-18T01:28:29.837Z,96352.88
2022-11-18T01:30:35.075Z,96353.03
2022-11-18T01:32:38.101Z,96361.00
2022-11-18T01:34:41.073Z,96350.56
2022-11-18T01:36:44.134Z,96350.72
2022-11-18T01:38:48.727Z,96348.41
2022-11-18T01:40:51.827Z,96357.53
2022-11-18T01:42:54.844Z,96356.03
2022-11-18T01:45:09.736Z,96363.50
2022-11-18T01:47:13.341Z,96356.63
2022-11-18T01:49:16.875Z,96367.06
2022-11-18T01:51:23.432Z,96361.84
2022-11-18T01:53:28.496Z,96355.81
2022-11-18T01:55:35.235Z,96366.25
2022-11-18T01:57:38.201Z,96366.09
2022-11-18T01:59:42.665Z,96370.63
2022-11-18T02:01:45.836Z,96362.94
2022-11-18T02:03:49.854Z,96366.41
2022-11-18T02:05:53.717Z,96361.19
2022-11-18T02:07:57.746Z,96371.63
2022-11-18T02:10:03.807Z,96369.00
2022-11-18T02:12:09.417Z,96373.38
2022-11-18T02:14:12.575Z,96373.22
2022-11-18T02:16:17.115Z,96373.22
2022-11-18T02:18:28.528Z,96377.63
2022-11-18T02:20:33.362Z,96376.84
2022-11-18T02:22:48.593Z,96386.28
2022-11-18T02:24:57.491Z,96378.59
2022-11-18T02:27:36.142Z,96377.63
2022-11-18T02:29:44.148Z,96393.44
2022-11-18T02:31:52.650Z,96402.75
2022-11-18T02:33:57.786Z,96397.69
2022-11-18T02:36:06.737Z,96402.91
2022-11-18T02:38:11.602Z,96395.25
2022-11-18T02:40:17.559Z,96403.22
2022-11-18T02:42:20.964Z,96405.97
2022-11-18T02:44:26.294Z,96405.16
2022-11-18T02:46:34.081Z,96401.56
2022-11-18T02:48:41.389Z,96409.22
2022-11-18T02:50:45.954Z,96398.66
2022-11-18T02:52:52.908Z,96401.25
2022-11-18T02:54:56.738Z,96391.63
2022-11-18T02:57:00.258Z,96395.09
2022-11-18T02:59:04.087Z,96394.09
2022-11-18T03:01:07.301Z,96397.41
2022-11-18T03:03:28.160Z,96407.84
2022-11-18T03:05:37.541Z,96401.78
2022-11-18T03:07:42.570Z,96407.97
2022-11-18T03:09:48.338Z,96406.47
2022-11-18T03:11:56.925Z,96418.56
2022-11-18T03:14:09.483Z,96419.53
2022-11-18T03:16:15.781Z,96425.69
2022-11-18T03:18:26.509Z,96431.91
2022-11-18T03:20:32.093Z,96423.25
2022-11-18T03:22:40.257Z,96436.44
2022-11-18T03:24:46.938Z,96440.97
2022-11-18T03:26:52.457Z,96448.13
2022-11-18T03:28:58.054Z,96448.13
2022-11-18T03:31:04.442Z,96447.19
2022-11-18T03:33:11.662Z,96459.38
2022-11-18T03:35:19.272Z,96461.84
2022-11-18T03:37:23.207Z,96460.88
2022-11-18T03:39:27.245Z,96465.94
2022-11-18T03:41:34.151Z,96472.81
2022-11-18T03:43:39.617Z,96473.63
2022-11-18T03:45:45.587Z,96471.97
2022-11-18T03:47:51.514Z,96476.38
2022-11-18T03:49:57.714Z,96476.53
2022-11-18T03:52:07.703Z,96486.66
2022-11-18T03:54:13.515Z,96485.00
2022-11-18T03:56:18.058Z,96485.44
2022-11-18T03:58:24.642Z,96483.84
2022-11-18T04:00:28.630Z,96490.06
2022-11-18T04:02:31.969Z,96485.72
2022-11-18T04:04:35.115Z,96485.59
2022-11-18T04:06:39.910Z,96484.81
2022-11-18T04:08:45.003Z,96485.16
2022-11-18T04:10:52.071Z,96478.91
2022-11-18T04:13:05.915Z,96490.13
2022-11-18T04:15:10.454Z,96492.44
2022-11-18T04:17:14.726Z,96496.56
2022-11-18T04:19:17.799Z,96502.44
2022-11-18T04:21:20.765Z,96512.44
2022-11-18T04:23:23.904Z,96514.91
2022-11-18T04:25:28.381Z,96513.81
2022-11-18T04:27:31.420Z,96512.84
2022-11-18T04:29:35.221Z,96523.13
2022-11-18T04:31:38.258Z,96513.38
2022-11-18T04:33:41.198Z,96519.28
2022-11-18T04:35:44.510Z,96516.66
2022-11-18T04:37:47.450Z,96516.66
2022-11-18T04:39:50.863Z,96518.47
2022-11-18T04:41:56.956Z,96524.47
2022-11-18T04:43:59.992Z,96526.28
2022-11-18T04:46:03.115Z,96526.13
2022-11-18T04:48:06.845Z,96526.13
2022-11-18T04:50:10.582Z,96531.34
2022-11-18T04:52:13.609Z,96529.41
2022-11-18T04:54:17.335Z,96532.16
2022-11-18T04:56:20.406Z,96530.38
2022-11-18T04:58:24.950Z,96528.75
2022-11-18T05:00:28.007Z,96534.09
2022-11-18T05:02:30.971Z,96534.91
2022-11-18T05:04:35.398Z,96534.63
2022-11-18T05:06:38.408Z,96536.28
2022-11-18T05:08:41.350Z,96539.69
2022-11-18T05:10:44.439Z,96545.88
2022-11-18T05:12:49.707Z,96540.66
2022-11-18T05:14:54.128Z,96550.25
2022-11-18T05:16:58.683Z,96547.00
2022-11-18T05:19:03.233Z,96553.97
2022-11-18T05:21:06.534Z,96560.16
2022-11-18T05:23:09.719Z,96555.91
2022-11-18T05:25:12.729Z,96554.25
2022-11-18T05:27:16.324Z,96557.69
2022-11-18T05:29:20.245Z,96567.28
2022-11-18T05:31:24.788Z,96564.81
2022-11-18T05:33:27.908Z,96564.94
2022-11-18T05:35:31.337Z,96565.94
2022-11-18T05:37:34.718Z,96563.59
2022-11-18T05:39:37.831Z,96567.03
2022-11-18T05:41:58.345Z,96565.66
2022-11-18T05:44:01.799Z,96573.19
2022-11-18T05:46:05.279Z,96570.56
2022-11-18T05:48:09.728Z,96574.03
2022-11-18T05:50:16.046Z,96581.00
2022-11-18T05:52:20.528Z,96584.88
2022-11-18T05:54:24.058Z,96581.84
2022-11-18T05:56:30.051Z,96590.63
2022-11-18T05:58:33.126Z,96592.00
2022-11-18T06:00:36.293Z,96595.03
2022-11-18T06:02:39.339Z,96596.00
2022-11-18T06:04:46.461Z,96589.28
2022-11-18T06:06:50.651Z,96600.22
2022-11-18T06:08:56.910Z,96600.94
2022-11-18T06:11:00.346Z,96610.38
2022-11-18T06:13:06.643Z,96605.97
2022-11-18T06:15:14.745Z,96610.91
2022-11-18T06:17:19.581Z,96613.38
2022-11-18T06:19:22.944Z,96608.88
2022-11-18T06:21:27.450Z,96613.09
2022-11-18T06:23:32.551Z,96621.63
2022-11-18T06:25:38.681Z,96628.47
2022-11-18T06:27:42.239Z,96621.34
2022-11-18T06:29:45.334Z,96626.28
2022-11-18T06:31:48.377Z,96624.34
2022-11-18T06:33:51.419Z,96626.00
2022-11-18T06:35:54.467Z,96632.03
2022-11-18T06:37:58.899Z,96637.25
2022-11-18T06:40:02.002Z,96641.63
2022-11-18T06:42:05.245Z,96627.75
2022-11-18T06:44:07.335Z,96631.34
2022-11-18T06:46:29.902Z,96640.94
2022-11-18T06:48:32.937Z,96639.31
2022-11-18T06:50:35.919Z,96648.75
2022-11-18T06:52:39.635Z,96643.69
2022-11-18T06:54:44.228Z,96642.72
2022-11-18T06:56:47.306Z,96646.97
2022-11-18T06:58:54.340Z,96651.22
2022-11-18T07:00:57.419Z,96650.41
2022-11-18T07:03:00.489Z,96655.47
2022-11-18T07:05:03.656Z,96660.81
2022-11-18T07:07:06.884Z,96662.75
2022-11-18T07:09:10.045Z,96673.72
2022-11-18T07:11:16.681Z,96666.72
2022-11-18T07:13:19.761Z,96670.97
2022-11-18T07:15:22.815Z,96679.59
2022-11-18T07:17:26.506Z,96677.00
2022-11-18T07:19:34.448Z,96685.78
2022-11-18T07:21:39.541Z,96689.22
2022-11-18T07:23:43.072Z,96683.31
2022-11-18T07:25:46.885Z,96699.09
2022-11-18T07:27:51.278Z,96695.66
2022-11-18T07:29:54.324Z,96699.09
2022-11-18T07:31:57.407Z,96694.84
2022-11-18T07:34:00.636Z,96692.63
2022-11-18T07:36:05.344Z,96691.41
2022-11-18T07:38:08.372Z,96699.22
2022-11-18T07:40:11.854Z,96701.00
2022-11-18T07:42:16.589Z,96703.88
2022-11-18T07:44:21.526Z,96715.81
2022-11-18T07:46:26.341Z,96708.81
2022-11-18T07:48:30.025Z,96720.06
2022-11-18T07:50:33.306Z,96721.97
2022-11-18T07:52:36.559Z,96720.59
2022-11-18T07:54:40.701Z,96724.44
2022-11-18T07:56:43.990Z,96725.97
2022-11-18T07:58:47.533Z,96730.47
2022-11-18T08:00:51.972Z,96740.63
2022-11-18T08:02:57.828Z,96736.38
2022-11-18T08:05:03.782Z,96739.66
2022-11-18T08:07:10.862Z,96740.63
2022-11-18T08:09:14.203Z,96741.44
2022-11-18T08:11:22.402Z,96746.50
2022-11-18T08:13:29.485Z,96749.81
2022-11-18T08:15:32.801Z,96759.00
2022-11-18T08:17:37.597Z,96753.78
2022-11-18T08:19:40.746Z,96750.22
2022-11-18T08:21:45.297Z,96749.41
2022-11-18T08:23:51.731Z,96757.09
2022-11-18T08:26:03.127Z,96762.84
2022-11-18T08:28:06.549Z,96763.66
2022-11-18T08:30:11.135Z,96761.78
2022-11-18T08:32:14.715Z,96771.91
2022-11-18T08:34:19.192Z,96774.41
2022-11-18T08:36:24.143Z,96770.94
2022-11-18T08:38:27.398Z,96778.50
2022-11-18T08:40:31.662Z,96774.25
2022-11-18T08:42:37.788Z,96780.16
2022-11-18T08:44:40.827Z,96785.22
2022-11-18T08:46:45.566Z,96788.66
2022-11-18T08:48:48.913Z,96785.09
2022-11-18T08:50:54.936Z,96785.09
2022-11-18T08:52:58.068Z,96793.59
2022-11-18T08:55:02.946Z,96793.31
2022-11-18T08:57:06.126Z,96798.53
2022-11-18T08:59:09.336Z,96794.97
2022-11-18T09:01:12.675Z,96799.91
2022-11-18T09:03:15.878Z,96794.69
2022-11-18T09:05:18.981Z,96803.19
2022-11-18T09:07:23.510Z,96805.81
2022-11-18T09:09:26.737Z,96808.13
2022-11-18T09:11:29.797Z,96803.59
2022-11-18T09:13:56.307Z,96809.66
2022-11-18T09:15:59.147Z,96808.69
2022-11-18T09:18:02.304Z,96815.69
2022-11-18T09:20:06.150Z,96818.03
2022-11-18T09:22:09.577Z,96817.22
2022-11-18T09:24:14.013Z,96822.44
2022-11-18T09:26:19.175Z,96824.06
2022-11-18T09:28:22.194Z,96831.06
2022-11-18T09:30:25.254Z,96825.03
2022-11-18T09:32:28.329Z,96832.84
2022-11-18T09:34:32.475Z,96837.94
2022-11-18T09:36:35.451Z,96834.34
2022-11-18T09:38:38.509Z,96835.31
2022-11-18T09:40:49.761Z,96838.47
2022-11-18T09:42:58.798Z,96843.56
2022-11-18T09:45:13.842Z,96843.69
2022-11-18T09:47:26.363Z,96842.16
2022-11-18T09:49:32.160Z,96843.00
2022-11-18T09:51:41.068Z,96842.88
2022-11-18T09:53:45.767Z,96846.97
2022-11-18T09:55:51.292Z,96848.63
2022-11-18T09:57:56.951Z,96848.50
2022-11-18T10:00:00.498Z,96850.84
2022-11-18T10:02:09.350Z,96853.19
2022-11-18T10:04:16.968Z,96852.22
2022-11-18T10:06:25.242Z,96852.91
2022-11-18T10:08:30.127Z,96855.25
2022-11-18T10:10:46.650Z,96850.03
2022-11-18T10:12:56.128Z,96857.56
2022-11-18T10:15:09.207Z,96857.31
2022-11-18T10:17:25.802Z,96857.97
2022-11-18T10:19:33.750Z,96860.31
2022-11-18T10:21:49.456Z,96863.06
2022-11-18T10:23:54.870Z,96865.66
2022-11-18T10:25:58.589Z,96861.13
2022-11-18T10:28:18.072Z,96863.88
2022-11-18T10:30:22.624Z,96862.38
2022-11-18T10:32:25.733Z,96862.66
2022-11-18T10:34:28.926Z,96863.59
2022-11-18T10:36:34.187Z,96867.19
2022-11-18T10:38:37.238Z,96870.63
2022-11-18T10:40:45.374Z,96868.00
2022-11-18T10:42:48.354Z,96871.44
2022-11-18T10:44:52.856Z,96865.25
2022-11-18T10:46:55.941Z,96876.91
2022-11-18T10:49:17.370Z,96862.78
2022-11-18T10:51:25.526Z,96874.59
2022-11-18T10:53:32.248Z,96872.53
2022-11-18T10:55:35.507Z,96875.69
2022-11-18T10:57:43.396Z,96875.41
2022-11-18T10:59:48.723Z,96867.44
2022-11-18T11:02:05.375Z,96870.75
2022-11-18T11:04:18.474Z,96877.63
2022-11-18T11:06:33.918Z,96872.41
2022-11-18T11:08:49.486Z,96872.13
2022-11-18T11:10:55.772Z,96872.97
2022-11-18T11:13:01.688Z,96882.28
2022-11-18T11:15:07.681Z,96881.72
2022-11-18T11:17:14.695Z,96878.03
2022-11-18T11:19:21.226Z,96874.59
2022-11-18T11:21:27.895Z,96872.94
2022-11-18T11:23:33.770Z,96870.34
2022-11-18T11:30:18.921Z,96880.38
2022-11-18T11:32:27.944Z,96872.69
2022-11-18T11:34:37.415Z,96885.72
2022-11-18T11:36:46.499Z,96872.81
2022-11-18T11:39:01.335Z,96888.06
2022-11-18T11:50:03.230Z,96895.72
2022-11-18T11:52:12.015Z,96887.38
2022-11-18T11:54:45.657Z,96889.72
2022-11-18T11:56:52.072Z,96894.66
2022-11-18T11:59:22.137Z,96900.53
2022-11-18T12:01:28.995Z,96899.31
2022-11-18T12:03:51.437Z,96900.28
2022-11-18T12:05:56.495Z,96902.06
2022-11-18T12:08:01.700Z,96900.13
2022-11-18T12:10:17.648Z,96896.28
2022-11-18T12:12:35.988Z,96899.97
2022-11-18T12:14:43.456Z,96897.88
2022-11-18T12:16:48.507Z,96907.88
2022-11-18T12:18:56.382Z,96910.63
2022-11-18T12:21:00.819Z,96907.56
2022-11-18T12:23:15.117Z,96901.94
2022-11-18T12:25:44.734Z,96908.69
2022-11-18T12:28:01.101Z,96908.25
2022-11-18T12:30:05.365Z,96904.94
2022-11-18T12:32:26.704Z,96906.81
2022-11-18T12:34:36.218Z,96906.81
2022-11-18T12:36:42.443Z,96900.75
2022-11-18T12:38:45.659Z,96903.22
2022-11-18T12:40:52.655Z,96907.63
2022-11-18T12:43:13.800Z,96906.53
2022-11-18T12:45:53.552Z,96912.53
2022-11-18T12:47:59.583Z,96916.75
2022-11-18T12:50:13.690Z,96912.63
2022-11-18T12:52:49.674Z,96915.78
2022-11-18T12:54:52.926Z,96918.94
2022-11-18T12:56:57.171Z,96924.00
2022-11-18T12:59:02.474Z,96922.22
2022-11-18T13:01:07.828Z,96922.22
2022-11-18T13:03:10.936Z,96916.03
2022-11-18T13:05:21.115Z,96916.25
2022-11-18T13:07:42.321Z,96919.13
2022-11-18T13:09:47.139Z,96920.91
2022-11-18T13:11:53.165Z,96923.53
2022-11-18T13:14:10.493Z,96930.56
2022-11-18T13:16:38.437Z,96930.84
2022-11-18T13:18:51.626Z,96929.19
2022-11-18T13:21:00.249Z,96932.53
2022-11-18T13:23:22.210Z,96934.81
2022-11-18T13:25:28.242Z,96931.84
2022-11-18T13:27:51.125Z,96927.31
2022-11-18T13:29:59.682Z,96937.16
2022-11-18T13:32:18.155Z,96936.91
2022-11-18T13:34:23.081Z,96931.94
2022-11-18T13:36:27.139Z,96932.91
2022-11-18T13:38:30.203Z,96938.41
2022-11-18T13:41:04.253Z,96932.09
2022-11-18T13:43:10.458Z,96938.88
2022-11-18T13:45:14.484Z,96942.72
2022-11-18T13:47:24.388Z,96935.16
2022-11-18T13:49:34.310Z,96942.19
2022-11-18T13:51:38.848Z,96936.66
2022-11-18T13:53:43.450Z,96942.19
2022-11-18T13:55:51.437Z,96936.13
2022-11-18T13:58:00.797Z,96935.31
2022-11-18T14:00:08.170Z,96939.72
2022-11-18T14:02:14.420Z,96939.88
2022-11-18T14:04:20.726Z,96936.41
2022-11-18T14:06:28.290Z,96939.16
2022-11-18T14:08:32.838Z,96935.59
2022-11-18T14:10:42.589Z,96939.16
2022-11-18T14:12:59.067Z,96939.16
2022-11-18T14:15:16.172Z,96937.69
2022-11-18T14:17:20.908Z,96944.66
2022-11-18T14:19:30.381Z,96946.31
2022-11-18T14:21:35.323Z,96949.59
2022-11-18T14:23:38.698Z,96946.31
2022-11-18T14:25:44.963Z,96940.44
2022-11-18T14:27:52.310Z,96944.25
2022-11-18T14:29:55.758Z,96944.13
2022-11-18T14:32:14.952Z,96948.81
2022-11-18T14:34:21.117Z,96944.69
2022-11-18T14:36:24.183Z,96952.88
2022-11-18T14:38:43.631Z,96953.03
2022-11-18T14:40:56.942Z,96958.13
2022-11-18T14:43:02.129Z,96960.72
2022-11-18T14:45:05.805Z,96967.88
2022-11-18T14:47:16.859Z,96964.41
2022-11-18T14:49:23.540Z,96963.59
2022-11-18T14:51:26.872Z,96968.00
2022-11-18T14:53:34.775Z,96973.38
2022-11-18T14:55:38.388Z,96971.84
2022-11-18T14:57:41.623Z,96976.25
2022-11-18T14:59:46.125Z,96976.38
2022-11-18T15:01:49.808Z,96970.19
2022-11-18T15:03:52.993Z,96972.94
2022-11-18T15:05:56.185Z,96976.53
2022-11-18T15:07:59.217Z,96978.28
2022-11-18T15:10:02.280Z,96977.63
2022-11-18T15:12:10.179Z,96979.53
2022-11-18T15:14:18.804Z,96983.09
2022-11-18T15:16:25.863Z,96984.22
2022-11-18T15:18:28.951Z,96989.44
2022-11-18T15:20:32.155Z,96988.88
2022-11-18T15:22:35.544Z,96988.31
2022-11-18T15:24:38.811Z,96987.38
2022-11-18T15:26:44.197Z,96985.84
2022-11-18T15:28:47.614Z,96993.13
2022-11-18T15:30:50.841Z,96991.88
2022-11-18T15:32:55.465Z,96998.44
2022-11-18T15:34:58.572Z,96994.47
2022-11-18T15:37:01.727Z,97003.94
2022-11-18T15:39:04.940Z,96998.44
2022-11-18T15:41:08.077Z,96999.69
2022-11-18T15:43:11.137Z,97003.38
2022-11-18T15:45:14.273Z,97013.94
2022-11-18T15:47:17.390Z,97016.53
2022-11-18T15:49:22.115Z,97021.88
2022-11-18T15:51:26.035Z,97021.19
2022-11-18T15:53:29.370Z,97027.38
2022-11-18T15:55:32.384Z,97023.09
2022-11-18T15:57:35.479Z,97027.22
2022-11-18T15:59:38.584Z,97034.94
2022-11-18T16:01:43.598Z,97032.44
2022-11-18T16:03:46.659Z,97033.25
2022-11-18T16:05:53.396Z,97032.59
2022-11-18T16:07:56.544Z,97034.38
2022-11-18T16:10:17.138Z,97031.91
2022-11-18T16:12:37.742Z,97039.84
2022-11-18T16:14:40.722Z,97033.09
2022-11-18T16:16:44.662Z,97028.03
2022-11-18T16:18:47.748Z,97035.16
2022-11-18T16:20:58.618Z,97033.63
2022-11-18T16:23:01.601Z,97029.75
2022-11-18T16:25:05.180Z,97025.66
2022-11-18T16:27:08.213Z,97035.94
2022-11-18T16:29:15.607Z,97032.50
2022-11-18T16:31:36.143Z,97032.06
2022-11-18T16:33:39.434Z,97034.00
2022-11-18T16:35:47.815Z,97037.53
2022-11-18T16:37:52.230Z,97056.59
2022-11-18T16:39:55.480Z,97047.03
2022-11-18T16:42:07.480Z,97059.22
2022-11-18T16:44:13.794Z,97055.78
2022-11-18T16:46:16.765Z,97058.41
2022-11-18T16:48:19.920Z,97055.78
2022-11-18T16:50:23.017Z,97055.91
2022-11-18T16:52:26.236Z,97054.97
2022-11-18T16:54:32.084Z,97056.47
2022-11-18T16:56:36.549Z,97056.75
2022-11-18T16:58:39.542Z,97047.16
2022-11-18T17:01:16.591Z,97056.75
2022-11-18T17:03:06.106Z,97060.31
2022-11-18T17:05:09.730Z,97056.88
2022-11-18T17:07:13.113Z,97062.06
2022-11-18T17:09:18.077Z,97065.78
2022-11-18T17:11:23.034Z,97058.91
2022-11-18T17:13:26.031Z,97063.44
2022-11-18T17:15:29.104Z,97068.66
2022-11-18T17:17:32.156Z,97076.47
2022-11-18T17:19:35.255Z,97074.00
2022-11-18T17:21:38.274Z,97081.69
2022-11-18T17:23:42.169Z,97084.16
2022-11-18T17:25:45.195Z,97083.22
2022-11-18T17:27:49.633Z,97088.31
2022-11-18T17:29:52.682Z,97091.72
2022-11-18T17:31:55.763Z,97085.53
2022-11-18T17:33:58.953Z,97090.75
2022-11-18T17:36:02.349Z,97101.91
2022-11-18T17:38:05.344Z,97096.69
2022-11-18T17:40:10.056Z,97101.91
2022-11-18T17:42:17.612Z,97096.81
2022-11-18T17:44:22.152Z,97098.56
2022-11-18T17:46:25.573Z,97097.75
2022-11-18T17:48:29.970Z,97096.13
2022-11-18T17:50:33.048Z,97100.38
2022-11-18T17:52:36.161Z,97102.03
2022-11-18T17:54:39.288Z,97114.38
2022-11-18T17:56:42.487Z,97110.91
2022-11-18T17:58:45.785Z,97109.28
2022-11-18T18:00:51.068Z,97106.81
2022-11-18T18:02:54.485Z,97107.63
2022-11-18T18:04:58.182Z,97116.25
2022-11-18T18:07:01.803Z,97113.66
2022-11-18T18:09:05.174Z,97121.59
2022-11-18T18:11:10.995Z,97119.00
2022-11-18T18:13:31.982Z,97116.25
2022-11-18T18:15:35.665Z,97115.44
2022-11-18T18:17:40.351Z,97121.47
2022-11-18T18:19:43.409Z,97118.19
2022-11-18T18:21:46.780Z,97125.88
2022-11-18T18:23:49.897Z,97124.22
2022-11-18T18:25:53.052Z,97130.28
2022-11-18T18:27:56.112Z,97129.16
2022-11-18T18:29:59.183Z,97135.22
2022-11-18T18:32:02.557Z,97128.09
2022-11-18T18:34:07.551Z,97126.44
2022-11-18T18:36:12.907Z,97135.22
2022-11-18T18:38:16.111Z,97132.63
2022-11-18T18:40:19.328Z,97136.03
2022-11-18T18:42:25.927Z,97134.94
2022-11-18T18:44:49.414Z,97130.72
2022-11-18T18:46:51.526Z,97134.50
2022-11-18T18:48:54.664Z,97145.78
2022-11-18T18:51:05.331Z,97143.06
2022-11-18T18:53:08.442Z,97143.06
2022-11-18T18:55:11.549Z,97142.06
2022-11-18T18:57:14.535Z,97143.75
2022-11-18T18:59:17.578Z,97143.63
2022-11-18T19:01:21.472Z,97138.28
2022-11-18T19:03:24.625Z,97146.78
2022-11-18T19:05:53.590Z,97144.03
2022-11-18T19:07:53.445Z,97150.06
2022-11-18T19:09:56.617Z,97150.34
2022-11-18T19:12:17.240Z,97143.34
2022-11-18T19:14:21.353Z,97146.78
2022-11-18T19:16:24.534Z,97141.56
2022-11-18T19:18:27.793Z,97140.50
2022-11-18T19:20:36.861Z,97140.50
2022-11-18T19:22:39.945Z,97142.97
2022-11-18T19:24:52.157Z,97149.00
2022-11-18T19:26:55.513Z,97148.19
2022-11-18T19:28:59.272Z,97147.34
2022-11-18T19:31:02.425Z,97151.47
2022-11-18T19:33:05.887Z,97148.19
2022-11-18T19:35:09.918Z,97154.34
2022-11-18T19:37:13.418Z,97149.25
2022-11-18T19:39:16.683Z,97153.66
2022-11-18T19:41:21.256Z,97151.75
2022-11-18T19:43:27.143Z,97154.34
2022-11-18T19:45:30.173Z,97155.28
2022-11-18T19:47:33.542Z,97150.19
2022-11-18T19:49:36.703Z,97158.75
2022-11-18T19:51:39.945Z,97154.47
2022-11-18T19:53:43.785Z,97160.50
2022-11-18T19:55:54.374Z,97156.00
2022-11-18T19:57:58.873Z,97170.13
2022-11-18T20:00:02.491Z,97163.25
2022-11-18T20:02:12.671Z,97170.38
2022-11-18T20:04:15.775Z,97167.06
2022-11-18T20:06:19.800Z,97169.13
2022-11-18T20:08:24.289Z,97168.16
2022-11-18T20:10:27.435Z,97168.84
2022-11-18T20:12:30.526Z,97167.06
2022-11-18T20:14:35.209Z,97164.47
2022-11-18T20:16:38.732Z,97163.63
2022-11-18T20:18:42.386Z,97163.75
2022-11-18T20:20:45.546Z,97158.69
2022-11-18T20:22:48.648Z,97163.91
2022-11-18T20:24:52.102Z,97169.13
2022-11-18T20:26:55.290Z,97161.28
2022-11-18T20:28:58.404Z,97169.94
2022-11-18T20:31:03.130Z,97166.34
2022-11-18T20:33:06.358Z,97169.94
2022-11-18T20:35:10.505Z,97165.66
2022-11-18T20:37:14.914Z,97170.06
2022-11-18T20:39:18.650Z,97170.56
2022-11-18T20:41:22.521Z,97165.34
2022-11-18T20:43:24.662Z,97166.53
2022-11-18T20:45:27.714Z,97165.59
2022-11-18T20:47:32.127Z,97162.06
2022-11-18T20:49:35.193Z,97170.81
2022-11-18T20:51:38.212Z,97173.44
2022-11-18T20:53:42.762Z,97172.72
2022-11-18T20:55:49.442Z,97177.94
2022-11-18T20:57:52.514Z,97179.56
2022-11-18T20:59:55.704Z,97187.28
2022-11-18T21:01:58.846Z,97193.34
2022-11-18T21:04:04.504Z,97187.16
2022-11-18T21:06:13.630Z,97194.97
2022-11-18T21:08:17.565Z,97193.22
2022-11-18T21:10:20.769Z,97192.34
2022-11-18T21:12:23.882Z,97194.97
2022-11-18T21:14:26.078Z,97198.41
2022-11-18T21:16:29.335Z,97195.94
2022-11-18T21:18:32.313Z,97197.56
2022-11-18T21:20:54.404Z,97199.25
2022-11-18T21:22:58.183Z,97199.38
2022-11-18T21:25:01.274Z,97201.16
2022-11-18T21:27:05.097Z,97197.56
2022-11-18T21:29:09.762Z,97203.75
2022-11-18T21:31:12.855Z,97201.97
2022-11-18T21:33:16.035Z,97199.38
2022-11-18T21:35:19.237Z,97198.66
2022-11-18T21:37:23.710Z,97205.66
2022-11-18T21:39:27.564Z,97203.03
2022-11-18T21:41:31.143Z,97201.41
2022-11-18T21:44:03.912Z,97206.50
2022-11-18T21:46:01.570Z,97202.09
2022-11-18T21:48:05.182Z,97208.25
2022-11-18T21:50:09.230Z,97206.50
2022-11-18T21:52:12.334Z,97213.47
2022-11-18T21:54:18.237Z,97210.03
2022-11-18T21:56:23.171Z,97205.66
2022-11-18T21:58:26.330Z,97211.56
2022-11-18T22:00:29.705Z,97212.53
2022-11-18T22:02:32.870Z,97208.00
2022-11-18T22:04:54.426Z,97214.06
2022-11-18T22:06:57.626Z,97208.00
2022-11-18T22:09:01.120Z,97208.13
2022-11-18T22:11:06.244Z,97209.47
2022-11-18T22:13:09.388Z,97211.97
2022-11-18T22:15:12.521Z,97215.91
2022-11-18T22:17:15.752Z,97218.78
2022-11-18T22:19:19.135Z,97208.47
2022-11-18T22:21:22.821Z,97207.50
2022-11-18T22:23:27.459Z,97200.41
2022-11-18T22:25:30.588Z,97201.22
2022-11-18T22:27:35.108Z,97210.72
2022-11-18T22:29:38.187Z,97202.91
2022-11-18T22:31:41.178Z,97212.34
2022-11-18T22:33:44.267Z,97214.25
2022-11-18T22:35:47.533Z,97215.91
2022-11-18T22:37:50.647Z,97218.66
2022-11-18T22:39:53.767Z,97223.00
2022-11-18T22:42:14.508Z,97219.59
2022-11-18T22:44:18.880Z,97226.59
2022-11-18T22:46:22.000Z,97232.88
2022-11-18T22:48:25.319Z,97222.56
2022-11-18T22:50:28.704Z,97221.75
2022-11-18T22:52:32.339Z,97219.97
2022-11-18T22:54:39.805Z,97223.25
2022-11-18T22:56:43.433Z,97219.97
2022-11-18T22:58:46.483Z,97231.19
2022-11-18T23:00:50.899Z,97220.78
2022-11-18T23:02:53.996Z,97233.69
2022-11-18T23:04:57.205Z,97227.66
2022-11-18T23:07:00.277Z,97237.13
2022-11-18T23:09:03.500Z,97239.00
2022-11-18T23:11:08.113Z,97234.66
2022-11-18T23:13:31.493Z,97245.78
2022-11-18T23:15:34.594Z,97240.56
2022-11-18T23:17:38.938Z,97241.38
2022-11-18T23:19:43.857Z,97244.94
2022-11-18T23:21:47.421Z,97239.00
2022-11-18T23:23:50.451Z,97239.41
2022-11-18T23:25:53.472Z,97241.44
2022-11-18T23:27:56.681Z,97235.50
2022-11-18T23:29:59.789Z,97231.19
2022-11-18T23:32:02.798Z,97227.38
2022-11-18T23:34:07.252Z,97231.28
2022-11-18T23:36:12.341Z,97236.84
2022-11-18T23:38:15.370Z,97232.50
2022-11-18T23:40:18.789Z,97231.53
2022-11-18T23:42:21.876Z,97228.09
2022-11-18T23:44:44.919Z,97230.81
2022-11-18T23:46:47.975Z,97225.88
2022-11-18T23:48:51.057Z,97220.06
2022-11-18T23:50:56.194Z,97219.84
2022-11-18T23:52:59.211Z,97231.66
2022-11-18T23:55:02.206Z,97230.47
2022-11-18T23:57:05.563Z,97238.75
2022-11-18T23:59:08.942Z,97229.06
